createdAt,value
2018-01-15T00:01:52.530Z,-0.70
2018-01-15T00:04:20.005Z,-0.70
2018-01-15T00:06:48.240Z,-0.70
2018-01-15T00:09:15.746Z,-0.70
2018-01-15T00:11:44.017Z,-0.80
2018-01-15T00:14:12.254Z,-0.70
2018-01-15T00:16:39.757Z,-0.70
2018-01-15T00:19:08.010Z,-0.70
2018-01-15T00:21:35.516Z,-0.70
2018-01-15T00:24:03.021Z,-0.70
2018-01-15T00:26:30.486Z,-0.70
2018-01-15T00:28:57.957Z,-0.70
2018-01-15T00:31:25.522Z,-0.80
2018-01-15T00:33:52.959Z,-0.90
2018-01-15T00:36:20.425Z,-1.00
2018-01-15T00:38:47.934Z,-1.00
2018-01-15T00:41:15.409Z,-1.00
2018-01-15T00:43:42.902Z,-1.00
2018-01-15T00:46:10.377Z,-1.10
2018-01-15T00:48:38.601Z,-1.10
2018-01-15T00:51:06.138Z,-1.20
2018-01-15T00:53:33.615Z,-1.20
2018-01-15T00:56:01.081Z,-1.20
2018-01-15T00:58:28.589Z,-1.20
2018-01-15T01:00:56.842Z,-1.20
2018-01-15T01:03:24.332Z,-1.20
2018-01-15T01:05:52.568Z,-1.20
2018-01-15T01:08:20.063Z,-1.20
2018-01-15T01:10:48.289Z,-1.30
2018-01-15T01:13:15.765Z,-1.30
2018-01-15T01:15:44.058Z,-1.30
2018-01-15T01:18:11.525Z,-1.30
2018-01-15T01:20:39.770Z,-1.40
2018-01-15T01:23:07.263Z,-1.40
2018-01-15T01:25:35.538Z,-1.40
2018-01-15T01:28:03.777Z,-1.40
2018-01-15T01:30:31.253Z,-1.40
2018-01-15T01:32:58.752Z,-1.50
2018-01-15T01:35:26.225Z,-1.50
2018-01-15T01:37:53.682Z,-1.50
2018-01-15T01:40:21.199Z,-1.50
2018-01-15T01:42:48.671Z,-1.50
2018-01-15T01:45:16.922Z,-1.50
2018-01-15T01:47:44.398Z,-1.50
2018-01-15T01:50:12.643Z,-1.50
2018-01-15T01:52:40.134Z,-1.50
2018-01-15T01:55:08.389Z,-1.50
2018-01-15T01:57:35.890Z,-1.50
2018-01-15T02:00:03.362Z,-1.50
2018-01-15T02:02:30.874Z,-1.50
2018-01-15T02:04:58.349Z,-1.50
2018-01-15T02:07:26.607Z,-1.40
2018-01-15T02:09:54.110Z,-1.50
2018-01-15T02:12:21.638Z,-1.40
2018-01-15T02:14:49.882Z,-1.50
2018-01-15T02:17:17.367Z,-1.50
2018-01-15T02:19:44.874Z,-1.70
2018-01-15T02:22:12.337Z,-1.70
2018-01-15T02:24:39.811Z,-1.70
2018-01-15T02:27:07.293Z,-1.70
2018-01-15T02:29:34.769Z,-1.60
2018-01-15T02:32:02.270Z,-1.50
2018-01-15T02:34:29.750Z,-1.40
2018-01-15T02:36:57.233Z,-1.50
2018-01-15T02:39:24.728Z,-1.50
2018-01-15T02:41:52.217Z,-1.50
2018-01-15T02:44:19.711Z,-1.50
2018-01-15T02:46:47.182Z,-1.50
2018-01-15T02:49:15.466Z,-1.50
2018-01-15T02:51:43.722Z,-1.40
2018-01-15T02:54:11.211Z,-1.40
2018-01-15T02:56:38.701Z,-1.40
2018-01-15T02:59:06.170Z,-1.40
2018-01-15T03:01:33.670Z,-1.30
2018-01-15T03:04:01.911Z,-1.40
2018-01-15T03:06:29.408Z,-1.40
2018-01-15T03:08:57.741Z,-1.50
2018-01-15T03:11:25.201Z,-1.50
2018-01-15T03:13:52.690Z,-1.50
2018-01-15T03:16:20.165Z,-1.40
2018-01-15T03:18:47.675Z,-1.30
2018-01-15T03:21:15.145Z,-1.20
2018-01-15T03:23:42.654Z,-1.40
2018-01-15T03:26:10.133Z,-1.30
2018-01-15T03:28:37.605Z,-1.30
2018-01-15T03:31:05.153Z,-1.30
2018-01-15T03:33:32.615Z,-1.50
2018-01-15T03:36:00.115Z,-1.40
2018-01-15T03:38:28.363Z,-1.40
2018-01-15T03:40:55.999Z,-1.40
2018-01-15T03:43:23.489Z,-1.30
2018-01-15T03:45:50.966Z,-1.40
2018-01-15T03:48:18.526Z,-1.40
2018-01-15T03:50:45.945Z,-1.40
2018-01-15T03:53:13.441Z,-1.40
2018-01-15T03:55:40.906Z,-1.30
2018-01-15T03:58:08.421Z,-1.30
2018-01-15T04:00:35.891Z,-1.30
2018-01-15T04:03:03.370Z,-1.20
2018-01-15T04:05:30.862Z,-1.20
2018-01-15T04:07:59.130Z,-1.20
2018-01-15T04:10:27.358Z,-1.10
2018-01-15T04:12:54.840Z,-1.20
2018-01-15T04:15:22.369Z,-1.20
2018-01-15T04:17:49.851Z,-1.20
2018-01-15T04:20:17.340Z,-1.20
2018-01-15T04:22:45.598Z,-1.20
2018-01-15T04:25:13.076Z,-1.20
2018-01-15T04:27:41.342Z,-1.20
2018-01-15T04:30:08.810Z,-1.20
2018-01-15T04:32:37.061Z,-1.30
2018-01-15T04:35:04.570Z,-1.30
2018-01-15T04:37:32.057Z,-1.30
2018-01-15T04:39:59.570Z,-1.30
2018-01-15T04:42:27.038Z,-1.20
2018-01-15T04:44:54.547Z,-1.10
2018-01-15T04:47:22.023Z,-1.10
2018-01-15T04:49:49.497Z,-1.10
2018-01-15T04:52:17.765Z,-1.10
2018-01-15T04:54:46.028Z,-1.10
2018-01-15T04:57:13.494Z,-1.10
2018-01-15T04:59:41.010Z,-1.00
2018-01-15T05:02:08.483Z,-0.90
2018-01-15T05:04:35.974Z,-0.90
2018-01-15T05:07:04.230Z,-1.00
2018-01-15T05:09:31.722Z,-1.00
2018-01-15T05:11:59.989Z,-0.90
2018-01-15T05:14:27.461Z,-0.90
2018-01-15T05:16:54.967Z,-0.90
2018-01-15T05:19:22.437Z,-0.90
2018-01-15T05:21:49.943Z,-0.90
2018-01-15T05:24:17.444Z,-0.90
2018-01-15T05:26:44.917Z,-0.90
2018-01-15T05:29:12.418Z,-0.80
2018-01-15T05:31:39.919Z,-0.80
2018-01-15T05:34:07.377Z,-0.80
2018-01-15T05:36:34.916Z,-0.80
2018-01-15T05:39:02.381Z,-0.80
2018-01-15T05:41:29.885Z,-0.70
2018-01-15T05:43:57.465Z,-0.70
2018-01-15T05:46:25.723Z,-0.80
2018-01-15T05:48:53.201Z,-0.80
2018-01-15T05:51:21.434Z,-0.70
2018-01-15T05:53:48.933Z,-0.70
2018-01-15T05:56:17.179Z,-0.70
2018-01-15T05:58:44.653Z,-0.70
2018-01-15T06:01:12.920Z,-0.70
2018-01-15T06:03:40.421Z,-0.70
2018-01-15T06:06:07.909Z,-0.70
2018-01-15T06:08:35.397Z,-0.80
2018-01-15T06:11:02.909Z,-0.70
2018-01-15T06:13:30.386Z,-0.70
2018-01-15T06:15:57.893Z,-0.70
2018-01-15T06:18:26.139Z,-0.60
2018-01-15T06:20:53.618Z,-0.70
2018-01-15T06:23:21.892Z,-0.60
2018-01-15T06:25:49.385Z,-0.60
2018-01-15T06:28:16.882Z,-0.60
2018-01-15T06:30:44.353Z,-0.60
2018-01-15T06:33:13.370Z,-0.60
2018-01-15T06:35:41.606Z,-0.50
2018-01-15T06:38:09.089Z,-0.60
2018-01-15T06:40:36.569Z,-0.60
2018-01-15T06:43:04.847Z,-0.60
2018-01-15T06:45:33.122Z,-0.60
2018-01-15T06:48:01.367Z,-0.50
2018-01-15T06:50:28.840Z,-0.60
2018-01-15T06:52:56.333Z,-0.50
2018-01-15T06:55:23.805Z,-0.60
2018-01-15T06:57:51.319Z,-0.50
2018-01-15T07:00:18.781Z,-0.50
2018-01-15T07:02:47.040Z,-0.40
2018-01-15T07:05:14.560Z,-0.50
2018-01-15T07:07:42.033Z,-0.40
2018-01-15T07:10:09.572Z,-0.40
2018-01-15T07:12:37.037Z,-0.40
2018-01-15T07:15:04.576Z,-0.40
2018-01-15T07:17:32.014Z,-0.30
2018-01-15T07:19:59.483Z,-0.30
2018-01-15T07:22:27.742Z,-0.30
2018-01-15T07:24:55.351Z,-0.40
2018-01-15T07:27:22.870Z,-0.40
2018-01-15T07:29:50.381Z,-0.30
2018-01-15T07:32:17.851Z,-0.30
2018-01-15T07:34:45.353Z,-0.40
2018-01-15T07:37:13.634Z,-0.30
2018-01-15T07:39:41.852Z,-0.30
2018-01-15T07:42:09.356Z,-0.30
2018-01-15T07:44:37.594Z,-0.30
2018-01-15T07:47:05.097Z,-0.30
2018-01-15T07:49:33.342Z,-0.30
2018-01-15T07:52:00.810Z,-0.30
2018-01-15T07:54:28.296Z,-0.30
2018-01-15T07:56:56.530Z,-0.30
2018-01-15T07:59:24.018Z,-0.30
2018-01-15T08:01:52.249Z,-0.30
2018-01-15T08:04:19.757Z,-0.40
2018-01-15T08:06:48.004Z,-0.30
2018-01-15T08:09:15.469Z,-0.30
2018-01-15T08:11:42.978Z,-0.20
2018-01-15T08:14:10.444Z,-0.20
2018-01-15T08:16:37.941Z,-0.20
2018-01-15T08:19:05.424Z,-0.20
2018-01-15T08:21:33.699Z,-0.20
2018-01-15T08:24:02.697Z,-0.30
2018-01-15T08:26:30.973Z,-0.20
2018-01-15T08:28:58.477Z,-0.30
2018-01-15T08:31:25.980Z,-0.20
2018-01-15T08:33:55.109Z,-0.10
2018-01-15T08:36:23.351Z,-0.20
2018-01-15T08:38:50.825Z,-0.20
2018-01-15T08:41:19.112Z,-0.20
2018-01-15T08:43:47.319Z,0.00
2018-01-15T08:46:14.810Z,-0.10
2018-01-15T08:48:42.282Z,0.10
2018-01-15T08:51:09.769Z,0.10
2018-01-15T08:53:37.235Z,0.20
2018-01-15T08:56:04.723Z,0.10
2018-01-15T08:58:32.225Z,0.10
2018-01-15T09:01:00.524Z,0.20
2018-01-15T09:03:28.014Z,0.20
2018-01-15T09:05:55.485Z,0.20
2018-01-15T09:08:22.968Z,0.10
2018-01-15T09:10:50.482Z,0.20
2018-01-15T09:13:17.941Z,0.20
2018-01-15T09:15:45.449Z,0.10
2018-01-15T09:18:12.913Z,0.10
2018-01-15T09:20:41.165Z,0.20
2018-01-15T09:23:08.658Z,0.20
2018-01-15T09:25:36.901Z,0.00
2018-01-15T09:28:04.420Z,0.10
2018-01-15T09:30:31.905Z,0.10
2018-01-15T09:32:59.370Z,0.10
2018-01-15T09:35:26.857Z,0.20
2018-01-15T09:37:54.351Z,0.20
2018-01-15T09:40:22.598Z,0.40
2018-01-15T09:42:50.833Z,0.50
2018-01-15T09:45:18.321Z,0.50
2018-01-15T09:47:45.818Z,0.60
2018-01-15T09:50:13.302Z,0.60
2018-01-15T09:52:40.801Z,0.60
2018-01-15T09:55:09.035Z,0.60
2018-01-15T09:57:36.536Z,0.50
2018-01-15T10:00:04.034Z,0.50
2018-01-15T10:02:31.511Z,0.70
2018-01-15T10:04:59.024Z,0.70
2018-01-15T10:07:27.255Z,0.80
2018-01-15T10:09:54.718Z,0.80
2018-01-15T10:12:22.203Z,0.80
2018-01-15T10:14:49.670Z,0.90
2018-01-15T10:17:17.929Z,0.90
2018-01-15T10:19:45.411Z,0.90
2018-01-15T10:22:13.666Z,1.20
2018-01-15T10:24:41.143Z,1.20
2018-01-15T10:27:09.435Z,1.20
2018-01-15T10:29:37.703Z,1.10
2018-01-15T10:32:05.937Z,1.20
2018-01-15T10:34:33.433Z,1.20
2018-01-15T10:37:01.663Z,1.40
2018-01-15T10:39:30.766Z,1.50
2018-01-15T10:41:58.261Z,1.40
2018-01-15T10:44:26.490Z,1.50
2018-01-15T10:46:53.972Z,1.50
2018-01-15T10:49:21.445Z,1.60
2018-01-15T10:51:49.737Z,1.60
2018-01-15T10:54:17.978Z,1.60
2018-01-15T10:56:45.446Z,1.60
2018-01-15T10:59:12.946Z,1.70
2018-01-15T11:01:40.422Z,1.80
2018-01-15T11:04:07.914Z,1.50
2018-01-15T11:06:35.429Z,1.60
2018-01-15T11:09:02.938Z,1.60
2018-01-15T11:11:30.422Z,1.50
2018-01-15T11:13:58.651Z,1.60
2018-01-15T11:16:26.150Z,1.50
2018-01-15T11:18:54.383Z,1.60
2018-01-15T11:21:21.869Z,1.60
2018-01-15T11:23:49.361Z,1.70
2018-01-15T11:26:16.831Z,1.70
2018-01-15T11:28:44.336Z,1.70
2018-01-15T11:31:11.802Z,1.70
2018-01-15T11:33:39.286Z,1.70
2018-01-15T11:36:07.560Z,1.90
2018-01-15T11:38:35.778Z,1.80
2018-01-15T11:41:03.281Z,1.80
2018-01-15T11:43:31.529Z,1.90
2018-01-15T11:45:59.022Z,1.90
2018-01-15T11:48:27.278Z,2.00
2018-01-15T11:50:54.753Z,2.00
2018-01-15T11:53:22.250Z,2.00
2018-01-15T11:55:49.750Z,1.90
2018-01-15T11:58:17.241Z,1.80
2018-01-15T12:00:45.478Z,1.90
2018-01-15T12:03:12.990Z,1.90
2018-01-15T12:05:40.454Z,1.80
2018-01-15T12:08:07.922Z,1.80
2018-01-15T12:10:35.422Z,1.90
2018-01-15T12:13:02.886Z,2.00
2018-01-15T12:15:30.353Z,1.90
2018-01-15T12:17:58.633Z,2.00
2018-01-15T12:20:26.885Z,2.00
2018-01-15T12:22:54.421Z,2.00
2018-01-15T12:25:21.921Z,2.10
2018-01-15T12:27:49.401Z,2.10
2018-01-15T12:30:17.672Z,2.10
2018-01-15T12:32:45.934Z,2.10
2018-01-15T12:35:13.417Z,2.10
2018-01-15T12:37:40.922Z,2.20
2018-01-15T12:40:08.407Z,2.20
2018-01-15T12:42:35.871Z,2.20
2018-01-15T12:45:04.130Z,2.20
2018-01-15T12:47:31.630Z,2.10
2018-01-15T12:49:59.871Z,2.30
2018-01-15T12:52:27.380Z,2.20
2018-01-15T12:54:54.860Z,2.30
2018-01-15T12:57:22.330Z,2.30
2018-01-15T12:59:49.814Z,2.30
2018-01-15T13:02:17.287Z,2.20
2018-01-15T13:04:45.577Z,2.20
2018-01-15T13:07:25.061Z,2.20
2018-01-15T13:09:52.588Z,2.20
2018-01-15T13:12:20.047Z,2.20
2018-01-15T13:14:47.522Z,2.20
2018-01-15T13:17:15.060Z,2.20
2018-01-15T13:19:42.525Z,2.30
2018-01-15T13:22:10.002Z,2.20
2018-01-15T13:24:37.494Z,2.20
2018-01-15T13:27:04.959Z,2.20
2018-01-15T13:29:32.469Z,2.20
2018-01-15T13:31:59.935Z,2.20
2018-01-15T13:34:27.485Z,2.20
2018-01-15T13:36:54.981Z,2.20
2018-01-15T13:39:22.458Z,2.30
2018-01-15T13:41:50.722Z,2.30
2018-01-15T13:44:18.190Z,2.30
2018-01-15T13:46:45.698Z,2.30
2018-01-15T13:49:13.184Z,2.30
2018-01-15T13:51:40.682Z,2.40
2018-01-15T13:54:08.948Z,2.40
2018-01-15T13:56:36.430Z,2.40
2018-01-15T13:59:03.922Z,2.40
2018-01-15T14:01:31.426Z,2.40
2018-01-15T14:03:59.662Z,2.50
2018-01-15T14:06:27.184Z,2.50
2018-01-15T14:08:55.398Z,2.50
2018-01-15T14:11:22.906Z,2.50
2018-01-15T14:13:51.144Z,2.40
2018-01-15T14:16:18.632Z,2.40
2018-01-15T14:18:46.909Z,2.30
2018-01-15T14:21:15.144Z,2.40
2018-01-15T14:23:42.660Z,2.40
2018-01-15T14:26:10.902Z,2.30
2018-01-15T14:28:38.374Z,2.30
2018-01-15T14:31:05.890Z,2.30
2018-01-15T14:33:33.345Z,2.30
2018-01-15T14:36:00.847Z,2.30
2018-01-15T14:38:29.112Z,2.30
2018-01-15T14:40:56.591Z,2.30
2018-01-15T14:43:24.850Z,2.20
2018-01-15T14:45:52.321Z,2.20
2018-01-15T14:48:19.817Z,2.20
2018-01-15T14:50:47.742Z,2.20
2018-01-15T14:53:15.221Z,2.20
2018-01-15T14:55:42.694Z,2.20
2018-01-15T14:58:10.186Z,2.10
2018-01-15T15:00:37.689Z,2.20
2018-01-15T15:03:05.920Z,2.10
2018-01-15T15:05:33.427Z,2.10
2018-01-15T15:08:01.657Z,2.10
2018-01-15T15:10:29.130Z,2.10
2018-01-15T15:12:56.597Z,2.10
2018-01-15T15:15:24.081Z,2.10
2018-01-15T15:17:52.326Z,2.10
2018-01-15T15:20:19.793Z,2.10
2018-01-15T15:22:47.292Z,2.20
2018-01-15T15:25:14.805Z,2.20
2018-01-15T15:27:42.321Z,2.20
2018-01-15T15:30:09.838Z,2.20
2018-01-15T15:32:37.326Z,2.20
2018-01-15T15:35:04.821Z,2.10
2018-01-15T15:37:32.292Z,2.10
2018-01-15T15:39:59.840Z,2.00
2018-01-15T15:42:27.320Z,2.00
2018-01-15T15:44:54.789Z,2.00
2018-01-15T15:47:23.061Z,1.90
2018-01-15T15:49:50.547Z,1.90
2018-01-15T15:52:18.050Z,1.90
2018-01-15T15:54:45.515Z,1.90
2018-01-15T15:57:12.981Z,1.90
2018-01-15T15:59:41.245Z,1.90
2018-01-15T16:02:08.737Z,1.90
2018-01-15T16:04:36.238Z,1.90
2018-01-15T16:07:03.710Z,1.90
2018-01-15T16:09:31.170Z,1.90
2018-01-15T16:11:58.664Z,1.90
2018-01-15T16:14:26.139Z,1.90
2018-01-15T16:16:54.406Z,1.80
2018-01-15T16:19:22.672Z,1.90
2018-01-15T16:24:52.874Z,1.90
2018-01-15T16:27:20.390Z,1.90
2018-01-15T16:29:48.617Z,1.90
2018-01-15T16:32:16.118Z,1.80
2018-01-15T16:34:43.598Z,1.80
2018-01-15T16:37:11.091Z,1.80
2018-01-15T16:39:38.620Z,1.80
2018-01-15T16:42:06.082Z,1.80
2018-01-15T16:44:33.610Z,1.80
2018-01-15T16:47:01.842Z,1.70
2018-01-15T16:49:29.310Z,1.70
2018-01-15T16:51:56.810Z,1.70
2018-01-15T16:54:25.097Z,1.70
2018-01-15T16:56:53.372Z,1.70
2018-01-15T16:59:21.607Z,1.70
2018-01-15T17:01:49.124Z,1.70
2018-01-15T17:04:16.632Z,1.70
2018-01-15T17:06:44.116Z,1.70
2018-01-15T17:09:11.630Z,1.70
2018-01-15T17:11:39.110Z,1.70
2018-01-15T17:14:06.588Z,1.70
2018-01-15T17:16:34.086Z,1.60
2018-01-15T17:19:01.561Z,1.70
2018-01-15T17:21:29.052Z,1.60
2018-01-15T17:23:56.505Z,1.60
2018-01-15T17:26:24.031Z,1.60
2018-01-15T17:28:51.498Z,1.60
2018-01-15T17:31:18.998Z,1.50
2018-01-15T17:33:47.251Z,1.40
2018-01-15T17:36:14.718Z,1.40
2018-01-15T17:38:42.226Z,1.40
2018-01-15T17:41:09.751Z,1.50
2018-01-15T17:43:37.970Z,1.50
2018-01-15T17:46:05.482Z,1.50
2018-01-15T17:48:33.710Z,1.40
2018-01-15T17:51:01.231Z,1.40
2018-01-15T17:53:29.465Z,1.40
2018-01-15T17:55:57.094Z,1.40
2018-01-15T17:58:24.590Z,1.40
2018-01-15T18:00:52.058Z,1.40
2018-01-15T18:03:19.581Z,1.40
2018-01-15T18:05:47.082Z,1.40
2018-01-15T18:08:14.562Z,1.40
2018-01-15T18:10:42.839Z,1.50
2018-01-15T18:13:11.057Z,1.50
2018-01-15T18:15:38.569Z,1.50
2018-01-15T18:18:06.806Z,1.50
2018-01-15T18:20:34.322Z,1.50
2018-01-15T18:23:01.794Z,1.40
2018-01-15T18:25:29.296Z,1.40
2018-01-15T18:27:56.798Z,1.40
2018-01-15T18:30:24.309Z,1.40
2018-01-15T18:32:52.577Z,1.30
2018-01-15T18:35:20.087Z,1.30
2018-01-15T18:37:48.342Z,1.40
2018-01-15T18:40:16.582Z,1.40
2018-01-15T18:42:44.094Z,1.40
2018-01-15T18:45:12.362Z,1.40
2018-01-15T18:47:40.613Z,1.40
2018-01-15T18:50:08.110Z,1.40
2018-01-15T18:52:35.611Z,1.40
2018-01-15T18:55:03.113Z,1.40
2018-01-15T18:57:31.363Z,1.50
2018-01-15T18:59:58.862Z,1.50
2018-01-15T19:02:27.146Z,1.60
2018-01-15T19:04:54.616Z,1.50
2018-01-15T19:07:22.181Z,1.60
2018-01-15T19:09:49.649Z,1.60
2018-01-15T19:12:17.127Z,1.60
2018-01-15T19:14:44.750Z,1.60
2018-01-15T19:17:12.230Z,1.60
2018-01-15T19:19:39.722Z,1.60
2018-01-15T19:22:07.949Z,1.60
2018-01-15T19:24:35.464Z,1.60
2018-01-15T19:27:02.953Z,1.60
2018-01-15T19:29:30.402Z,1.60
2018-01-15T19:31:57.930Z,1.60
2018-01-15T19:37:36.179Z,1.70
2018-01-15T19:40:03.634Z,1.70
2018-01-15T19:42:31.941Z,1.70
2018-01-15T19:45:05.029Z,1.70
2018-01-15T19:47:38.171Z,1.70
2018-01-15T19:50:11.347Z,1.70
2018-01-15T19:52:44.491Z,1.70
2018-01-15T19:55:18.534Z,1.70
2018-01-15T19:57:51.831Z,1.70
2018-01-15T20:00:25.207Z,1.70
2018-01-15T20:02:59.110Z,1.70
2018-01-15T20:05:32.249Z,1.60
2018-01-15T20:08:05.545Z,1.80
2018-01-15T20:10:38.889Z,1.80
2018-01-15T20:13:07.133Z,1.90
2018-01-15T20:15:35.362Z,1.90
2018-01-15T20:18:02.864Z,1.90
2018-01-15T20:20:30.413Z,2.00
2018-01-15T20:22:57.886Z,2.00
2018-01-15T20:25:25.355Z,2.00
2018-01-15T20:27:52.878Z,2.00
2018-01-15T20:30:20.392Z,2.00
2018-01-15T20:32:48.609Z,2.00
2018-01-15T20:35:16.102Z,2.00
2018-01-15T20:37:44.393Z,2.20
2018-01-15T20:40:11.873Z,2.20
2018-01-15T20:42:40.134Z,2.40
2018-01-15T20:45:08.438Z,2.40
2018-01-15T20:47:35.865Z,2.40
2018-01-15T20:50:04.118Z,2.50
2018-01-15T20:52:31.586Z,2.50
2018-01-15T20:54:59.097Z,2.50
2018-01-15T20:57:26.569Z,2.50
2018-01-15T20:59:54.098Z,2.60
2018-01-15T21:02:22.360Z,2.50
2018-01-15T21:04:50.601Z,2.60
2018-01-15T21:07:18.102Z,2.60
2018-01-15T21:09:45.601Z,2.60
2018-01-15T21:12:13.066Z,2.60
2018-01-15T21:14:40.618Z,2.70
2018-01-15T21:17:08.105Z,2.80
2018-01-15T21:19:35.642Z,2.70
2018-01-15T21:22:03.102Z,2.70
2018-01-15T21:24:30.601Z,2.80
2018-01-15T21:26:58.848Z,2.80
2018-01-15T21:29:26.319Z,2.80
2018-01-15T21:31:53.811Z,2.80
2018-01-15T21:34:21.285Z,2.90
2018-01-15T21:36:48.799Z,2.90
2018-01-15T21:39:16.281Z,2.90
2018-01-15T21:41:44.506Z,3.00
2018-01-15T21:44:12.044Z,2.90
2018-01-15T21:46:39.523Z,3.00
2018-01-15T21:49:07.015Z,3.10
2018-01-15T21:51:35.250Z,3.20
2018-01-15T21:54:02.753Z,3.20
2018-01-15T21:56:30.981Z,3.20
2018-01-15T21:58:58.470Z,3.10
2018-01-15T22:01:25.942Z,3.20
2018-01-15T22:03:54.168Z,3.40
2018-01-15T22:06:21.666Z,3.40
2018-01-15T22:08:49.129Z,3.40
2018-01-15T22:11:16.646Z,3.40
2018-01-15T22:13:44.125Z,3.40
2018-01-15T22:16:11.577Z,3.40
2018-01-15T22:18:39.104Z,3.30
2018-01-15T22:21:06.589Z,3.30
2018-01-15T22:23:34.050Z,3.30
2018-01-15T22:26:01.545Z,3.20
2018-01-15T22:28:29.762Z,3.20
2018-01-15T22:30:57.226Z,3.20
2018-01-15T22:33:24.726Z,3.30
2018-01-15T22:35:52.229Z,3.20
2018-01-15T22:38:19.713Z,3.20
2018-01-15T22:40:47.170Z,3.10
2018-01-15T22:43:14.665Z,3.20
2018-01-15T22:45:42.153Z,3.10
2018-01-15T22:48:10.413Z,3.10
2018-01-15T22:50:37.884Z,3.10
2018-01-15T22:53:06.097Z,3.10
2018-01-15T22:55:33.593Z,3.00
2018-01-15T22:58:01.862Z,3.00
2018-01-15T23:00:29.344Z,3.00
2018-01-15T23:02:57.613Z,3.10
2018-01-15T23:05:25.863Z,3.10
2018-01-15T23:07:53.325Z,3.10
2018-01-15T23:10:20.823Z,3.10
2018-01-15T23:12:49.052Z,3.10
2018-01-15T23:15:16.561Z,3.10
2018-01-15T23:17:44.055Z,3.10
2018-01-15T23:20:11.534Z,3.10
2018-01-15T23:22:39.026Z,3.10
2018-01-15T23:25:07.278Z,3.10
2018-01-15T23:27:34.764Z,3.10
2018-01-15T23:30:02.266Z,3.10
2018-01-15T23:32:29.761Z,3.20
2018-01-15T23:34:57.269Z,3.20
2018-01-15T23:37:24.715Z,3.10
2018-01-15T23:39:52.220Z,3.10
2018-01-15T23:42:19.688Z,3.10
2018-01-15T23:44:47.166Z,3.20
2018-01-15T23:47:15.401Z,3.20
2018-01-15T23:49:42.869Z,3.20
2018-01-15T23:52:10.361Z,3.10
2018-01-15T23:54:38.594Z,3.10
2018-01-15T23:57:06.097Z,3.10
2018-01-15T23:59:34.322Z,3.10
